sensor_id;sensor_type;location;lat;lon;timestamp;P1;durP1;ratioP1;P2;durP2;ratioP2
63280;SDS011;49406;51.044;3.766;2023-11-18T00:00:08;10.00;;;4.60;;
63280;SDS011;49406;51.044;3.766;2023-11-18T00:05:18;4.90;;;3.60;;
63280;SDS011;49406;51.044;3.766;2023-11-18T00:07:55;8.70;;;4.10;;
63280;SDS011;49406;51.044;3.766;2023-11-18T00:10:29;11.90;;;4.70;;
63280;SDS011;49406;51.044;3.766;2023-11-18T00:13:04;8.60;;;4.10;;
63280;SDS011;49406;51.044;3.766;2023-11-18T00:15:40;13.90;;;7.80;;
63280;SDS011;49406;51.044;3.766;2023-11-18T00:18:17;16.60;;;7.60;;
63280;SDS011;49406;51.044;3.766;2023-11-18T00:20:52;11.40;;;7.20;;
63280;SDS011;49406;51.044;3.766;2023-11-18T00:23:28;14.60;;;7.50;;
63280;SDS011;49406;51.044;3.766;2023-11-18T00:26:04;11.00;;;5.70;;
63280;SDS011;49406;51.044;3.766;2023-11-18T00:28:40;10.30;;;5.10;;
63280;SDS011;49406;51.044;3.766;2023-11-18T00:31:15;10.40;;;5.00;;
63280;SDS011;49406;51.044;3.766;2023-11-18T00:33:49;10.00;;;3.30;;
63280;SDS011;49406;51.044;3.766;2023-11-18T00:36:25;5.80;;;3.50;;
63280;SDS011;49406;51.044;3.766;2023-11-18T00:39:02;5.50;;;4.20;;
63280;SDS011;49406;51.044;3.766;2023-11-18T00:41:39;9.50;;;5.10;;
63280;SDS011;49406;51.044;3.766;2023-11-18T00:44:13;10.50;;;4.00;;
63280;SDS011;49406;51.044;3.766;2023-11-18T00:46:48;19.30;;;7.20;;
63280;SDS011;49406;51.044;3.766;2023-11-18T00:49:23;5.80;;;4.30;;
63280;SDS011;49406;51.044;3.766;2023-11-18T00:51:58;13.30;;;6.80;;
63280;SDS011;49406;51.044;3.766;2023-11-18T00:54:33;11.50;;;5.80;;
63280;SDS011;49406;51.044;3.766;2023-11-18T00:57:09;14.30;;;3.90;;
63280;SDS011;49406;51.044;3.766;2023-11-18T00:59:43;3.00;;;1.40;;
63280;SDS011;49406;51.044;3.766;2023-11-18T01:02:18;12.40;;;4.50;;
63280;SDS011;49406;51.044;3.766;2023-11-18T01:04:52;5.00;;;3.80;;
63280;SDS011;49406;51.044;3.766;2023-11-18T01:07:27;3.10;;;1.90;;
63280;SDS011;49406;51.044;3.766;2023-11-18T01:10:02;6.90;;;3.00;;
63280;SDS011;49406;51.044;3.766;2023-11-18T01:12:37;15.50;;;6.20;;
63280;SDS011;49406;51.044;3.766;2023-11-18T01:15:12;16.90;;;4.00;;
63280;SDS011;49406;51.044;3.766;2023-11-18T01:17:47;4.60;;;2.00;;
63280;SDS011;49406;51.044;3.766;2023-11-18T01:20:22;13.50;;;5.60;;
63280;SDS011;49406;51.044;3.766;2023-11-18T01:22:56;8.90;;;5.60;;
63280;SDS011;49406;51.044;3.766;2023-11-18T01:25:31;13.40;;;2.70;;
63280;SDS011;49406;51.044;3.766;2023-11-18T01:28:07;6.90;;;4.90;;
63280;SDS011;49406;51.044;3.766;2023-11-18T01:30:41;5.50;;;3.60;;
63280;SDS011;49406;51.044;3.766;2023-11-18T01:33:16;4.80;;;3.10;;
63280;SDS011;49406;51.044;3.766;2023-11-18T01:35:51;14.40;;;3.20;;
63280;SDS011;49406;51.044;3.766;2023-11-18T01:38:26;3.20;;;1.80;;
63280;SDS011;49406;51.044;3.766;2023-11-18T01:41:02;4.20;;;2.50;;
63280;SDS011;49406;51.044;3.766;2023-11-18T01:43:38;4.40;;;2.90;;
63280;SDS011;49406;51.044;3.766;2023-11-18T01:46:13;7.00;;;2.20;;
63280;SDS011;49406;51.044;3.766;2023-11-18T01:48:49;5.00;;;3.60;;
63280;SDS011;49406;51.044;3.766;2023-11-18T01:51:25;6.40;;;3.70;;
63280;SDS011;49406;51.044;3.766;2023-11-18T01:54:00;17.50;;;4.20;;
63280;SDS011;49406;51.044;3.766;2023-11-18T01:56:37;13.20;;;4.40;;
63280;SDS011;49406;51.044;3.766;2023-11-18T01:59:11;12.10;;;3.80;;
63280;SDS011;49406;51.044;3.766;2023-11-18T02:01:50;7.40;;;3.60;;
63280;SDS011;49406;51.044;3.766;2023-11-18T02:04:31;12.90;;;4.60;;
63280;SDS011;49406;51.044;3.766;2023-11-18T02:07:05;5.90;;;3.40;;
63280;SDS011;49406;51.044;3.766;2023-11-18T02:09:46;7.70;;;3.60;;
63280;SDS011;49406;51.044;3.766;2023-11-18T02:12:25;8.20;;;3.30;;
63280;SDS011;49406;51.044;3.766;2023-11-18T02:15:06;6.60;;;2.60;;
63280;SDS011;49406;51.044;3.766;2023-11-18T02:17:44;7.30;;;3.40;;
63280;SDS011;49406;51.044;3.766;2023-11-18T02:20:21;2.50;;;1.00;;
63280;SDS011;49406;51.044;3.766;2023-11-18T02:22:56;6.70;;;2.90;;
63280;SDS011;49406;51.044;3.766;2023-11-18T02:25:34;22.50;;;3.70;;
63280;SDS011;49406;51.044;3.766;2023-11-18T02:28:09;7.80;;;3.40;;
63280;SDS011;49406;51.044;3.766;2023-11-18T02:30:44;4.60;;;3.20;;
63280;SDS011;49406;51.044;3.766;2023-11-18T02:33:22;12.10;;;3.40;;
63280;SDS011;49406;51.044;3.766;2023-11-18T02:36:05;8.60;;;3.00;;
63280;SDS011;49406;51.044;3.766;2023-11-18T02:38:48;8.20;;;3.60;;
63280;SDS011;49406;51.044;3.766;2023-11-18T02:41:26;5.40;;;3.20;;
63280;SDS011;49406;51.044;3.766;2023-11-18T02:44:02;10.30;;;2.20;;
63280;SDS011;49406;51.044;3.766;2023-11-18T02:46:41;10.00;;;4.20;;
63280;SDS011;49406;51.044;3.766;2023-11-18T02:49:16;3.50;;;1.80;;
63280;SDS011;49406;51.044;3.766;2023-11-18T02:51:51;9.70;;;2.80;;
63280;SDS011;49406;51.044;3.766;2023-11-18T02:54:26;12.60;;;5.20;;
63280;SDS011;49406;51.044;3.766;2023-11-18T02:57:01;11.60;;;4.50;;
63280;SDS011;49406;51.044;3.766;2023-11-18T02:59:36;4.50;;;2.60;;
63280;SDS011;49406;51.044;3.766;2023-11-18T03:02:10;17.60;;;3.50;;
63280;SDS011;49406;51.044;3.766;2023-11-18T03:04:46;6.40;;;3.20;;
63280;SDS011;49406;51.044;3.766;2023-11-18T03:07:21;3.80;;;2.50;;
63280;SDS011;49406;51.044;3.766;2023-11-18T03:09:56;5.60;;;4.30;;
63280;SDS011;49406;51.044;3.766;2023-11-18T03:12:31;5.00;;;2.30;;
63280;SDS011;49406;51.044;3.766;2023-11-18T03:15:06;10.20;;;3.00;;
63280;SDS011;49406;51.044;3.766;2023-11-18T03:17:44;5.70;;;2.50;;
63280;SDS011;49406;51.044;3.766;2023-11-18T03:20:22;3.40;;;2.20;;
63280;SDS011;49406;51.044;3.766;2023-11-18T03:22:59;5.50;;;3.50;;
63280;SDS011;49406;51.044;3.766;2023-11-18T03:25:34;5.50;;;1.80;;
63280;SDS011;49406;51.044;3.766;2023-11-18T03:28:10;7.20;;;2.80;;
63280;SDS011;49406;51.044;3.766;2023-11-18T03:30:46;5.00;;;2.50;;
63280;SDS011;49406;51.044;3.766;2023-11-18T03:33:20;2.10;;;1.10;;
63280;SDS011;49406;51.044;3.766;2023-11-18T03:35:55;2.20;;;1.80;;
63280;SDS011;49406;51.044;3.766;2023-11-18T03:38:30;7.70;;;3.70;;
63280;SDS011;49406;51.044;3.766;2023-11-18T03:41:05;4.10;;;1.70;;
63280;SDS011;49406;51.044;3.766;2023-11-18T03:43:40;17.60;;;2.20;;
63280;SDS011;49406;51.044;3.766;2023-11-18T03:46:14;3.70;;;2.00;;
63280;SDS011;49406;51.044;3.766;2023-11-18T03:48:49;11.40;;;2.40;;
63280;SDS011;49406;51.044;3.766;2023-11-18T03:51:24;7.40;;;2.70;;
63280;SDS011;49406;51.044;3.766;2023-11-18T03:53:58;4.90;;;2.70;;
63280;SDS011;49406;51.044;3.766;2023-11-18T03:56:33;5.80;;;3.30;;
63280;SDS011;49406;51.044;3.766;2023-11-18T03:59:09;1.60;;;1.00;;
63280;SDS011;49406;51.044;3.766;2023-11-18T04:01:44;1.80;;;1.10;;
63280;SDS011;49406;51.044;3.766;2023-11-18T04:04:20;2.70;;;1.50;;
63280;SDS011;49406;51.044;3.766;2023-11-18T04:06:55;6.20;;;2.30;;
63280;SDS011;49406;51.044;3.766;2023-11-18T04:09:32;4.90;;;2.90;;
63280;SDS011;49406;51.044;3.766;2023-11-18T04:12:07;5.10;;;2.70;;
63280;SDS011;49406;51.044;3.766;2023-11-18T04:14:42;6.30;;;2.10;;
63280;SDS011;49406;51.044;3.766;2023-11-18T04:17:16;5.10;;;2.20;;
63280;SDS011;49406;51.044;3.766;2023-11-18T04:19:51;11.50;;;3.30;;
63280;SDS011;49406;51.044;3.766;2023-11-18T04:22:27;9.20;;;2.40;;
63280;SDS011;49406;51.044;3.766;2023-11-18T04:25:01;11.10;;;2.30;;
63280;SDS011;49406;51.044;3.766;2023-11-18T04:27:38;5.00;;;2.30;;
63280;SDS011;49406;51.044;3.766;2023-11-18T04:30:13;5.00;;;1.40;;
63280;SDS011;49406;51.044;3.766;2023-11-18T04:32:48;10.40;;;2.80;;
63280;SDS011;49406;51.044;3.766;2023-11-18T04:35:24;9.30;;;3.70;;
63280;SDS011;49406;51.044;3.766;2023-11-18T04:37:59;2.70;;;1.10;;
63280;SDS011;49406;51.044;3.766;2023-11-18T04:40:33;3.70;;;2.20;;
63280;SDS011;49406;51.044;3.766;2023-11-18T04:43:10;4.50;;;2.30;;
63280;SDS011;49406;51.044;3.766;2023-11-18T04:45:45;6.60;;;1.80;;
63280;SDS011;49406;51.044;3.766;2023-11-18T04:48:20;2.30;;;1.60;;
63280;SDS011;49406;51.044;3.766;2023-11-18T04:50:55;5.30;;;2.60;;
63280;SDS011;49406;51.044;3.766;2023-11-18T04:56:03;1.80;;;1.00;;
63280;SDS011;49406;51.044;3.766;2023-11-18T05:01:14;2.50;;;1.10;;
63280;SDS011;49406;51.044;3.766;2023-11-18T05:03:49;2.80;;;1.50;;
63280;SDS011;49406;51.044;3.766;2023-11-18T05:06:24;2.10;;;0.80;;
63280;SDS011;49406;51.044;3.766;2023-11-18T05:08:59;3.20;;;1.90;;
63280;SDS011;49406;51.044;3.766;2023-11-18T05:11:33;4.80;;;1.40;;
63280;SDS011;49406;51.044;3.766;2023-11-18T05:14:08;6.30;;;1.80;;
63280;SDS011;49406;51.044;3.766;2023-11-18T05:16:42;3.10;;;2.10;;
63280;SDS011;49406;51.044;3.766;2023-11-18T05:19:17;8.80;;;1.40;;
63280;SDS011;49406;51.044;3.766;2023-11-18T05:21:52;4.70;;;1.30;;
63280;SDS011;49406;51.044;3.766;2023-11-18T05:24:27;2.00;;;0.90;;
63280;SDS011;49406;51.044;3.766;2023-11-18T05:27:01;2.00;;;1.00;;
63280;SDS011;49406;51.044;3.766;2023-11-18T05:29:36;6.10;;;2.10;;
63280;SDS011;49406;51.044;3.766;2023-11-18T05:32:13;6.30;;;2.00;;
63280;SDS011;49406;51.044;3.766;2023-11-18T05:34:47;2.00;;;0.90;;
63280;SDS011;49406;51.044;3.766;2023-11-18T05:37:25;2.90;;;2.40;;
63280;SDS011;49406;51.044;3.766;2023-11-18T05:40:01;3.10;;;1.60;;
63280;SDS011;49406;51.044;3.766;2023-11-18T05:42:38;3.10;;;1.40;;
63280;SDS011;49406;51.044;3.766;2023-11-18T05:45:13;3.70;;;1.80;;
63280;SDS011;49406;51.044;3.766;2023-11-18T05:47:59;3.40;;;1.20;;
63280;SDS011;49406;51.044;3.766;2023-11-18T05:50:34;10.00;;;0.60;;
63280;SDS011;49406;51.044;3.766;2023-11-18T05:53:09;2.50;;;1.50;;
63280;SDS011;49406;51.044;3.766;2023-11-18T05:55:44;4.60;;;1.50;;
63280;SDS011;49406;51.044;3.766;2023-11-18T05:58:18;3.20;;;1.40;;
63280;SDS011;49406;51.044;3.766;2023-11-18T06:00:53;4.60;;;1.70;;
63280;SDS011;49406;51.044;3.766;2023-11-18T06:03:27;5.00;;;2.00;;
63280;SDS011;49406;51.044;3.766;2023-11-18T06:06:02;11.70;;;2.40;;
63280;SDS011;49406;51.044;3.766;2023-11-18T06:08:38;5.10;;;1.40;;
63280;SDS011;49406;51.044;3.766;2023-11-18T06:11:14;2.30;;;1.70;;
63280;SDS011;49406;51.044;3.766;2023-11-18T06:13:51;1.40;;;0.60;;
63280;SDS011;49406;51.044;3.766;2023-11-18T06:16:25;2.20;;;1.50;;
63280;SDS011;49406;51.044;3.766;2023-11-18T06:19:00;5.80;;;2.70;;
63280;SDS011;49406;51.044;3.766;2023-11-18T06:24:09;3.70;;;1.50;;
63280;SDS011;49406;51.044;3.766;2023-11-18T06:26:46;3.10;;;1.20;;
63280;SDS011;49406;51.044;3.766;2023-11-18T06:29:21;2.10;;;1.30;;
63280;SDS011;49406;51.044;3.766;2023-11-18T06:31:55;5.30;;;1.00;;
63280;SDS011;49406;51.044;3.766;2023-11-18T06:34:30;3.60;;;1.70;;
63280;SDS011;49406;51.044;3.766;2023-11-18T06:37:05;2.90;;;1.30;;
63280;SDS011;49406;51.044;3.766;2023-11-18T06:39:42;3.10;;;1.70;;
63280;SDS011;49406;51.044;3.766;2023-11-18T06:42:19;3.80;;;1.40;;
63280;SDS011;49406;51.044;3.766;2023-11-18T06:44:55;1.40;;;0.90;;
63280;SDS011;49406;51.044;3.766;2023-11-18T06:47:30;2.30;;;1.00;;
63280;SDS011;49406;51.044;3.766;2023-11-18T06:50:06;3.00;;;1.90;;
63280;SDS011;49406;51.044;3.766;2023-11-18T06:52:43;9.40;;;2.20;;
63280;SDS011;49406;51.044;3.766;2023-11-18T06:55:17;2.90;;;1.50;;
63280;SDS011;49406;51.044;3.766;2023-11-18T06:57:52;2.20;;;0.80;;
63280;SDS011;49406;51.044;3.766;2023-11-18T07:00:28;5.60;;;1.40;;
63280;SDS011;49406;51.044;3.766;2023-11-18T07:03:02;4.90;;;1.90;;
63280;SDS011;49406;51.044;3.766;2023-11-18T07:05:37;4.10;;;2.30;;
63280;SDS011;49406;51.044;3.766;2023-11-18T07:08:12;2.70;;;1.30;;
63280;SDS011;49406;51.044;3.766;2023-11-18T07:10:46;5.40;;;1.10;;
63280;SDS011;49406;51.044;3.766;2023-11-18T07:13:21;5.10;;;1.80;;
63280;SDS011;49406;51.044;3.766;2023-11-18T07:15:56;3.50;;;1.90;;
63280;SDS011;49406;51.044;3.766;2023-11-18T07:18:30;4.80;;;0.80;;
63280;SDS011;49406;51.044;3.766;2023-11-18T07:21:05;3.50;;;1.30;;
63280;SDS011;49406;51.044;3.766;2023-11-18T07:23:41;3.80;;;1.90;;
63280;SDS011;49406;51.044;3.766;2023-11-18T07:26:15;4.20;;;1.80;;
63280;SDS011;49406;51.044;3.766;2023-11-18T07:28:50;5.20;;;2.40;;
63280;SDS011;49406;51.044;3.766;2023-11-18T07:31:24;4.90;;;1.60;;
63280;SDS011;49406;51.044;3.766;2023-11-18T07:34:00;7.20;;;2.40;;
63280;SDS011;49406;51.044;3.766;2023-11-18T07:36:35;2.80;;;1.10;;
63280;SDS011;49406;51.044;3.766;2023-11-18T07:39:09;2.50;;;1.10;;
63280;SDS011;49406;51.044;3.766;2023-11-18T07:41:47;1.30;;;0.80;;
63280;SDS011;49406;51.044;3.766;2023-11-18T07:44:22;2.50;;;1.30;;
63280;SDS011;49406;51.044;3.766;2023-11-18T07:46:56;3.90;;;1.40;;
63280;SDS011;49406;51.044;3.766;2023-11-18T07:49:31;8.60;;;2.00;;
63280;SDS011;49406;51.044;3.766;2023-11-18T07:52:07;6.20;;;2.80;;
63280;SDS011;49406;51.044;3.766;2023-11-18T07:54:41;7.80;;;2.60;;
63280;SDS011;49406;51.044;3.766;2023-11-18T07:57:16;3.50;;;2.00;;
63280;SDS011;49406;51.044;3.766;2023-11-18T07:59:51;9.00;;;2.00;;
63280;SDS011;49406;51.044;3.766;2023-11-18T08:02:27;2.80;;;1.30;;
63280;SDS011;49406;51.044;3.766;2023-11-18T08:05:02;4.60;;;1.70;;
63280;SDS011;49406;51.044;3.766;2023-11-18T08:07:38;3.20;;;1.90;;
63280;SDS011;49406;51.044;3.766;2023-11-18T08:10:15;2.50;;;1.60;;
63280;SDS011;49406;51.044;3.766;2023-11-18T08:12:51;4.20;;;2.10;;
63280;SDS011;49406;51.044;3.766;2023-11-18T08:15:26;5.20;;;1.80;;
63280;SDS011;49406;51.044;3.766;2023-11-18T08:18:01;3.40;;;1.30;;
63280;SDS011;49406;51.044;3.766;2023-11-18T08:20:36;8.30;;;2.00;;
63280;SDS011;49406;51.044;3.766;2023-11-18T08:23:11;7.20;;;2.60;;
63280;SDS011;49406;51.044;3.766;2023-11-18T08:25:45;5.30;;;2.20;;
63280;SDS011;49406;51.044;3.766;2023-11-18T08:28:22;3.70;;;2.50;;
63280;SDS011;49406;51.044;3.766;2023-11-18T08:30:57;3.90;;;2.30;;
63280;SDS011;49406;51.044;3.766;2023-11-18T08:33:32;6.30;;;2.00;;
63280;SDS011;49406;51.044;3.766;2023-11-18T08:36:07;6.00;;;2.20;;
63280;SDS011;49406;51.044;3.766;2023-11-18T08:38:44;1.90;;;1.10;;
63280;SDS011;49406;51.044;3.766;2023-11-18T08:41:18;10.30;;;4.40;;
63280;SDS011;49406;51.044;3.766;2023-11-18T08:43:54;6.80;;;2.70;;
63280;SDS011;49406;51.044;3.766;2023-11-18T08:46:28;3.20;;;2.10;;
63280;SDS011;49406;51.044;3.766;2023-11-18T08:49:03;7.50;;;2.70;;
63280;SDS011;49406;51.044;3.766;2023-11-18T08:51:42;7.60;;;3.60;;
63280;SDS011;49406;51.044;3.766;2023-11-18T08:56:56;4.00;;;2.50;;
63280;SDS011;49406;51.044;3.766;2023-11-18T08:59:31;9.10;;;3.00;;
63280;SDS011;49406;51.044;3.766;2023-11-18T09:02:06;1.90;;;1.50;;
63280;SDS011;49406;51.044;3.766;2023-11-18T09:04:46;5.00;;;3.10;;
63280;SDS011;49406;51.044;3.766;2023-11-18T09:07:21;4.60;;;2.10;;
63280;SDS011;49406;51.044;3.766;2023-11-18T09:09:56;3.30;;;2.00;;
63280;SDS011;49406;51.044;3.766;2023-11-18T09:12:30;6.20;;;2.00;;
63280;SDS011;49406;51.044;3.766;2023-11-18T09:15:06;6.60;;;4.10;;
63280;SDS011;49406;51.044;3.766;2023-11-18T09:17:45;4.80;;;3.30;;
63280;SDS011;49406;51.044;3.766;2023-11-18T09:20:20;8.60;;;4.50;;
63280;SDS011;49406;51.044;3.766;2023-11-18T09:22:55;1.50;;;0.90;;
63280;SDS011;49406;51.044;3.766;2023-11-18T09:25:30;9.30;;;2.90;;
63280;SDS011;49406;51.044;3.766;2023-11-18T09:28:05;13.70;;;3.20;;
63280;SDS011;49406;51.044;3.766;2023-11-18T09:30:46;3.80;;;2.60;;
63280;SDS011;49406;51.044;3.766;2023-11-18T09:33:25;10.50;;;2.60;;
63280;SDS011;49406;51.044;3.766;2023-11-18T09:36:07;5.10;;;2.50;;
63280;SDS011;49406;51.044;3.766;2023-11-18T09:38:44;4.40;;;2.80;;
63280;SDS011;49406;51.044;3.766;2023-11-18T09:41:19;3.80;;;2.40;;
63280;SDS011;49406;51.044;3.766;2023-11-18T09:43:58;3.30;;;1.90;;
63280;SDS011;49406;51.044;3.766;2023-11-18T09:46:34;5.80;;;1.60;;
63280;SDS011;49406;51.044;3.766;2023-11-18T09:49:17;3.70;;;2.00;;
63280;SDS011;49406;51.044;3.766;2023-11-18T09:52:06;3.00;;;1.50;;
63280;SDS011;49406;51.044;3.766;2023-11-18T09:54:45;2.10;;;1.20;;
63280;SDS011;49406;51.044;3.766;2023-11-18T09:57:31;3.80;;;1.60;;
63280;SDS011;49406;51.044;3.766;2023-11-18T10:00:12;2.40;;;1.20;;
63280;SDS011;49406;51.044;3.766;2023-11-18T10:02:58;2.90;;;1.50;;
63280;SDS011;49406;51.044;3.766;2023-11-18T10:05:33;3.60;;;1.60;;
63280;SDS011;49406;51.044;3.766;2023-11-18T10:08:10;4.20;;;1.80;;
63280;SDS011;49406;51.044;3.766;2023-11-18T10:10:48;7.60;;;1.70;;
63280;SDS011;49406;51.044;3.766;2023-11-18T10:13:23;3.60;;;1.00;;
63280;SDS011;49406;51.044;3.766;2023-11-18T10:15:58;3.60;;;1.20;;
63280;SDS011;49406;51.044;3.766;2023-11-18T10:18:32;5.50;;;3.10;;
63280;SDS011;49406;51.044;3.766;2023-11-18T10:21:08;3.10;;;1.80;;
63280;SDS011;49406;51.044;3.766;2023-11-18T10:24:01;6.30;;;4.00;;
63280;SDS011;49406;51.044;3.766;2023-11-18T10:26:43;2.30;;;1.00;;
63280;SDS011;49406;51.044;3.766;2023-11-18T10:29:19;3.90;;;1.90;;
63280;SDS011;49406;51.044;3.766;2023-11-18T10:32:03;2.50;;;1.40;;
63280;SDS011;49406;51.044;3.766;2023-11-18T10:34:41;5.90;;;2.40;;
63280;SDS011;49406;51.044;3.766;2023-11-18T10:37:17;2.30;;;1.20;;
63280;SDS011;49406;51.044;3.766;2023-11-18T10:39:54;3.10;;;1.80;;
63280;SDS011;49406;51.044;3.766;2023-11-18T10:42:29;4.20;;;2.20;;
63280;SDS011;49406;51.044;3.766;2023-11-18T10:45:05;2.70;;;1.50;;
63280;SDS011;49406;51.044;3.766;2023-11-18T10:47:44;3.00;;;1.80;;
63280;SDS011;49406;51.044;3.766;2023-11-18T10:50:19;2.10;;;1.10;;
63280;SDS011;49406;51.044;3.766;2023-11-18T10:52:54;1.20;;;0.80;;
63280;SDS011;49406;51.044;3.766;2023-11-18T10:55:35;6.10;;;0.90;;
63280;SDS011;49406;51.044;3.766;2023-11-18T10:58:11;3.50;;;1.20;;
63280;SDS011;49406;51.044;3.766;2023-11-18T11:00:50;4.30;;;1.30;;
63280;SDS011;49406;51.044;3.766;2023-11-18T11:03:32;6.10;;;2.10;;
63280;SDS011;49406;51.044;3.766;2023-11-18T11:06:16;2.50;;;1.50;;
63280;SDS011;49406;51.044;3.766;2023-11-18T11:08:55;7.20;;;1.30;;
63280;SDS011;49406;51.044;3.766;2023-11-18T11:11:32;2.60;;;1.50;;
63280;SDS011;49406;51.044;3.766;2023-11-18T11:14:12;2.00;;;1.30;;
63280;SDS011;49406;51.044;3.766;2023-11-18T11:16:52;1.30;;;0.90;;
63280;SDS011;49406;51.044;3.766;2023-11-18T11:19:29;1.30;;;0.70;;
63280;SDS011;49406;51.044;3.766;2023-11-18T11:22:18;3.60;;;1.60;;
63280;SDS011;49406;51.044;3.766;2023-11-18T11:25:00;6.50;;;1.50;;
63280;SDS011;49406;51.044;3.766;2023-11-18T11:27:44;1.20;;;0.50;;
63280;SDS011;49406;51.044;3.766;2023-11-18T11:30:23;3.10;;;1.60;;
63280;SDS011;49406;51.044;3.766;2023-11-18T11:33:12;2.00;;;0.80;;
63280;SDS011;49406;51.044;3.766;2023-11-18T11:35:53;4.90;;;1.00;;
63280;SDS011;49406;51.044;3.766;2023-11-18T11:41:05;2.50;;;0.90;;
63280;SDS011;49406;51.044;3.766;2023-11-18T11:43:40;1.70;;;0.90;;
63280;SDS011;49406;51.044;3.766;2023-11-18T11:46:15;2.00;;;1.20;;
63280;SDS011;49406;51.044;3.766;2023-11-18T11:48:54;0.50;;;0.20;;
63280;SDS011;49406;51.044;3.766;2023-11-18T11:51:33;2.80;;;1.70;;
63280;SDS011;49406;51.044;3.766;2023-11-18T11:54:15;1.60;;;1.00;;
63280;SDS011;49406;51.044;3.766;2023-11-18T11:56:55;1.70;;;0.90;;
63280;SDS011;49406;51.044;3.766;2023-11-18T12:02:32;1.50;;;0.80;;
63280;SDS011;49406;51.044;3.766;2023-11-18T12:05:08;1.40;;;0.60;;
63280;SDS011;49406;51.044;3.766;2023-11-18T12:07:50;0.60;;;0.30;;
63280;SDS011;49406;51.044;3.766;2023-11-18T12:10:27;1.30;;;0.60;;
63280;SDS011;49406;51.044;3.766;2023-11-18T12:13:10;0.40;;;0.40;;
63280;SDS011;49406;51.044;3.766;2023-11-18T12:15:51;1.40;;;0.90;;
63280;SDS011;49406;51.044;3.766;2023-11-18T12:18:29;0.30;;;0.30;;
63280;SDS011;49406;51.044;3.766;2023-11-18T12:21:05;3.20;;;1.40;;
63280;SDS011;49406;51.044;3.766;2023-11-18T12:26:50;2.90;;;1.30;;
63280;SDS011;49406;51.044;3.766;2023-11-18T12:29:32;2.00;;;0.90;;
63280;SDS011;49406;51.044;3.766;2023-11-18T12:32:07;1.30;;;0.80;;
63280;SDS011;49406;51.044;3.766;2023-11-18T12:34:50;1.40;;;0.70;;
63280;SDS011;49406;51.044;3.766;2023-11-18T12:37:38;0.40;;;0.30;;
63280;SDS011;49406;51.044;3.766;2023-11-18T12:43:30;3.00;;;1.50;;
63280;SDS011;49406;51.044;3.766;2023-11-18T12:46:29;2.50;;;1.70;;
63280;SDS011;49406;51.044;3.766;2023-11-18T12:51:56;1.60;;;0.80;;
63280;SDS011;49406;51.044;3.766;2023-11-18T12:54:31;1.90;;;0.90;;
63280;SDS011;49406;51.044;3.766;2023-11-18T12:57:09;1.20;;;0.50;;
63280;SDS011;49406;51.044;3.766;2023-11-18T12:59:45;0.60;;;0.20;;
63280;SDS011;49406;51.044;3.766;2023-11-18T13:02:21;1.30;;;0.60;;
63280;SDS011;49406;51.044;3.766;2023-11-18T13:04:56;2.10;;;1.30;;
63280;SDS011;49406;51.044;3.766;2023-11-18T13:07:31;4.90;;;1.80;;
63280;SDS011;49406;51.044;3.766;2023-11-18T13:10:08;18.40;;;4.40;;
63280;SDS011;49406;51.044;3.766;2023-11-18T13:12:47;6.50;;;2.90;;
63280;SDS011;49406;51.044;3.766;2023-11-18T13:15:22;4.10;;;2.30;;
63280;SDS011;49406;51.044;3.766;2023-11-18T13:17:59;12.60;;;1.10;;
63280;SDS011;49406;51.044;3.766;2023-11-18T13:20:38;8.80;;;2.10;;
63280;SDS011;49406;51.044;3.766;2023-11-18T13:23:17;5.60;;;1.80;;
63280;SDS011;49406;51.044;3.766;2023-11-18T13:25:55;4.30;;;1.40;;
63280;SDS011;49406;51.044;3.766;2023-11-18T13:28:31;16.50;;;5.80;;
63280;SDS011;49406;51.044;3.766;2023-11-18T13:31:08;27.80;;;6.00;;
63280;SDS011;49406;51.044;3.766;2023-11-18T13:33:42;7.70;;;1.80;;
63280;SDS011;49406;51.044;3.766;2023-11-18T13:36:20;13.00;;;4.30;;
63280;SDS011;49406;51.044;3.766;2023-11-18T13:38:56;10.10;;;4.20;;
63280;SDS011;49406;51.044;3.766;2023-11-18T13:41:31;8.40;;;1.80;;
63280;SDS011;49406;51.044;3.766;2023-11-18T13:44:08;4.20;;;2.20;;
63280;SDS011;49406;51.044;3.766;2023-11-18T13:46:44;1.90;;;0.90;;
63280;SDS011;49406;51.044;3.766;2023-11-18T13:49:21;1.40;;;0.60;;
63280;SDS011;49406;51.044;3.766;2023-11-18T13:52:00;13.30;;;4.70;;
63280;SDS011;49406;51.044;3.766;2023-11-18T13:54:35;3.00;;;1.40;;
63280;SDS011;49406;51.044;3.766;2023-11-18T13:57:12;1.40;;;0.70;;
63280;SDS011;49406;51.044;3.766;2023-11-18T13:59:46;5.30;;;1.70;;
63280;SDS011;49406;51.044;3.766;2023-11-18T14:02:23;6.90;;;4.70;;
63280;SDS011;49406;51.044;3.766;2023-11-18T14:05:00;2.50;;;1.70;;
63280;SDS011;49406;51.044;3.766;2023-11-18T14:07:38;4.10;;;1.60;;
63280;SDS011;49406;51.044;3.766;2023-11-18T14:10:15;5.70;;;2.20;;
63280;SDS011;49406;51.044;3.766;2023-11-18T14:15:34;0.30;;;0.10;;
63280;SDS011;49406;51.044;3.766;2023-11-18T14:18:09;3.20;;;1.60;;
63280;SDS011;49406;51.044;3.766;2023-11-18T14:20:44;7.40;;;2.40;;
63280;SDS011;49406;51.044;3.766;2023-11-18T14:23:19;8.30;;;3.80;;
63280;SDS011;49406;51.044;3.766;2023-11-18T14:25:54;2.10;;;1.30;;
63280;SDS011;49406;51.044;3.766;2023-11-18T14:28:29;2.50;;;1.60;;
63280;SDS011;49406;51.044;3.766;2023-11-18T14:31:06;3.60;;;1.30;;
63280;SDS011;49406;51.044;3.766;2023-11-18T14:33:41;1.80;;;1.30;;
63280;SDS011;49406;51.044;3.766;2023-11-18T14:36:16;2.10;;;0.90;;
63280;SDS011;49406;51.044;3.766;2023-11-18T14:38:50;2.00;;;1.00;;
63280;SDS011;49406;51.044;3.766;2023-11-18T14:41:25;1.70;;;0.90;;
63280;SDS011;49406;51.044;3.766;2023-11-18T14:44:02;1.90;;;1.10;;
63280;SDS011;49406;51.044;3.766;2023-11-18T14:46:37;5.50;;;4.00;;
63280;SDS011;49406;51.044;3.766;2023-11-18T14:49:12;3.30;;;1.80;;
63280;SDS011;49406;51.044;3.766;2023-11-18T14:51:47;2.30;;;1.40;;
63280;SDS011;49406;51.044;3.766;2023-11-18T14:54:21;3.70;;;1.40;;
63280;SDS011;49406;51.044;3.766;2023-11-18T14:56:56;2.80;;;1.70;;
63280;SDS011;49406;51.044;3.766;2023-11-18T14:59:32;3.20;;;2.00;;
63280;SDS011;49406;51.044;3.766;2023-11-18T15:02:06;2.30;;;1.60;;
63280;SDS011;49406;51.044;3.766;2023-11-18T15:04:41;1.70;;;0.80;;
63280;SDS011;49406;51.044;3.766;2023-11-18T15:07:15;2.80;;;1.30;;
63280;SDS011;49406;51.044;3.766;2023-11-18T15:09:50;2.60;;;1.70;;
63280;SDS011;49406;51.044;3.766;2023-11-18T15:12:24;10.40;;;1.80;;
63280;SDS011;49406;51.044;3.766;2023-11-18T15:15:00;2.80;;;1.80;;
63280;SDS011;49406;51.044;3.766;2023-11-18T15:17:36;3.70;;;2.00;;
63280;SDS011;49406;51.044;3.766;2023-11-18T15:20:11;5.60;;;1.60;;
63280;SDS011;49406;51.044;3.766;2023-11-18T15:22:46;3.50;;;2.50;;
63280;SDS011;49406;51.044;3.766;2023-11-18T15:25:21;3.00;;;1.90;;
63280;SDS011;49406;51.044;3.766;2023-11-18T15:27:55;2.70;;;1.50;;
63280;SDS011;49406;51.044;3.766;2023-11-18T15:30:30;3.80;;;2.00;;
63280;SDS011;49406;51.044;3.766;2023-11-18T15:33:05;7.00;;;2.50;;
63280;SDS011;49406;51.044;3.766;2023-11-18T15:38:14;2.30;;;1.40;;
63280;SDS011;49406;51.044;3.766;2023-11-18T15:40:49;4.60;;;2.40;;
63280;SDS011;49406;51.044;3.766;2023-11-18T15:43:24;1.50;;;0.80;;
63280;SDS011;49406;51.044;3.766;2023-11-18T15:46:00;1.80;;;0.80;;
63280;SDS011;49406;51.044;3.766;2023-11-18T15:48:37;4.60;;;1.30;;
63280;SDS011;49406;51.044;3.766;2023-11-18T15:51:12;3.60;;;3.10;;
63280;SDS011;49406;51.044;3.766;2023-11-18T15:53:47;2.80;;;1.90;;
63280;SDS011;49406;51.044;3.766;2023-11-18T15:56:22;2.10;;;1.30;;
63280;SDS011;49406;51.044;3.766;2023-11-18T15:58:57;1.50;;;1.10;;
63280;SDS011;49406;51.044;3.766;2023-11-18T16:01:31;1.00;;;0.50;;
63280;SDS011;49406;51.044;3.766;2023-11-18T16:04:06;2.40;;;1.20;;
63280;SDS011;49406;51.044;3.766;2023-11-18T16:06:42;2.00;;;1.60;;
63280;SDS011;49406;51.044;3.766;2023-11-18T16:09:17;1.80;;;1.30;;
63280;SDS011;49406;51.044;3.766;2023-11-18T16:11:52;2.70;;;1.80;;